createdAt,value
2023-01-22T00:00:17.289Z,101264.47
2023-01-22T00:05:19.033Z,101254.59
2023-01-22T00:10:20.630Z,101255.31
2023-01-22T00:15:22.180Z,101254.59
2023-01-22T00:20:23.706Z,101257.66
2023-01-22T00:25:25.197Z,101249.03
2023-01-22T00:30:26.771Z,101247.44
2023-01-22T00:35:28.457Z,101244.03
2023-01-22T00:40:30.024Z,101243.19
2023-01-22T00:45:32.092Z,101245.88
2023-01-22T00:50:34.964Z,101233.53
2023-01-22T00:55:36.512Z,101231.69
2023-01-22T01:00:38.052Z,101227.16
2023-01-22T01:05:39.812Z,101219.09
2023-01-22T01:10:41.327Z,101218.13
2023-01-22T01:15:43.306Z,101220.66
2023-01-22T01:20:44.922Z,101223.34
2023-01-22T01:25:46.462Z,101219.69
2023-01-22T01:30:48.115Z,101222.84
2023-01-22T01:35:49.647Z,101225.38
2023-01-22T01:40:51.727Z,101219.63
2023-01-22T01:45:54.834Z,101217.38
2023-01-22T01:51:05.408Z,101215.03
2023-01-22T01:56:12.664Z,101205.56
2023-01-22T02:01:16.888Z,101210.22
2023-01-22T02:06:19.715Z,101196.38
2023-01-22T02:11:22.654Z,101201.09
2023-01-22T02:16:24.275Z,101201.63
2023-01-22T02:21:46.044Z,101201.94
2023-01-22T02:26:47.586Z,101200.78
2023-01-22T02:31:53.646Z,101189.72
2023-01-22T02:36:55.465Z,101177.97
2023-01-22T02:41:58.261Z,101178.44
2023-01-22T02:47:00.143Z,101182.97
2023-01-22T02:52:02.585Z,101182.28
2023-01-22T02:57:05.093Z,101192.06
2023-01-22T03:02:06.714Z,101193.56
2023-01-22T03:07:08.324Z,101197.22
2023-01-22T03:12:10.634Z,101185.63
2023-01-22T03:17:31.773Z,101176.75
2023-01-22T03:22:34.468Z,101172.47
2023-01-22T03:27:36.797Z,101180.16
2023-01-22T03:32:38.471Z,101178.00
2023-01-22T03:37:43.875Z,101175.59
2023-01-22T03:42:45.451Z,101175.28
2023-01-22T03:47:47.686Z,101180.66
2023-01-22T03:52:57.754Z,101176.16
2023-01-22T03:57:59.467Z,101177.13
2023-01-22T04:03:01.157Z,101174.31
2023-01-22T04:08:09.043Z,101180.81
2023-01-22T04:13:14.577Z,101174.31
2023-01-22T04:18:20.284Z,101184.41
2023-01-22T04:23:36.441Z,101179.97
2023-01-22T04:28:38.181Z,101182.84
2023-01-22T04:33:39.926Z,101191.63
2023-01-22T04:38:48.191Z,101195.03
2023-01-22T04:43:49.770Z,101198.16
2023-01-22T04:48:51.660Z,101192.47
2023-01-22T04:53:54.069Z,101189.91
2023-01-22T04:58:55.785Z,101187.63
2023-01-22T05:04:01.578Z,101190.38
2023-01-22T05:09:04.828Z,101188.22
2023-01-22T05:14:17.624Z,101185.06
2023-01-22T05:19:21.279Z,101185.31
2023-01-22T05:24:23.420Z,101187.47
2023-01-22T05:29:27.048Z,101186.19
2023-01-22T05:34:52.368Z,101186.50
2023-01-22T05:39:53.937Z,101186.50
2023-01-22T05:44:55.629Z,101185.78
2023-01-22T05:49:59.577Z,101195.75
2023-01-22T05:55:01.919Z,101196.00
2023-01-22T06:00:10.235Z,101192.06
2023-01-22T06:05:17.986Z,101190.78
2023-01-22T06:10:24.671Z,101194.34
2023-01-22T06:15:26.430Z,101197.38
2023-01-22T06:20:36.942Z,101202.34
2023-01-22T06:25:38.513Z,101207.34
2023-01-22T06:30:48.386Z,101210.44
2023-01-22T06:35:54.800Z,101200.97
2023-01-22T06:40:59.037Z,101204.63
2023-01-22T06:46:03.349Z,101214.16
2023-01-22T06:51:29.569Z,101211.06
2023-01-22T06:56:31.397Z,101206.78
2023-01-22T07:01:37.885Z,101214.75
2023-01-22T07:06:39.425Z,101215.19
2023-01-22T07:11:40.989Z,101216.19
2023-01-22T07:16:42.515Z,101226.69
2023-01-22T07:21:44.139Z,101221.16
2023-01-22T07:26:46.380Z,101233.78
2023-01-22T07:31:49.780Z,101243.59
2023-01-22T07:36:51.520Z,101245.84
2023-01-22T07:41:53.029Z,101245.59
2023-01-22T07:46:54.713Z,101257.06
2023-01-22T07:51:56.344Z,101265.31
2023-01-22T07:56:57.876Z,101268.28
2023-01-22T08:02:01.168Z,101269.28
2023-01-22T08:07:04.733Z,101268.84
2023-01-22T08:12:06.314Z,101275.31
2023-01-22T08:17:07.841Z,101285.50
2023-01-22T08:22:09.340Z,101290.28
2023-01-22T08:27:10.906Z,101306.78
2023-01-22T08:32:12.460Z,101321.16
2023-01-22T08:37:14.041Z,101326.16
2023-01-22T08:42:15.900Z,101328.66
2023-01-22T08:47:17.474Z,101342.88
2023-01-22T08:52:19.033Z,101347.56
2023-01-22T08:57:20.717Z,101350.47
2023-01-22T09:02:22.297Z,101350.34
2023-01-22T09:07:23.824Z,101346.25
2023-01-22T09:12:25.342Z,101336.56
2023-01-22T09:17:28.066Z,101330.19
2023-01-22T09:22:29.573Z,101340.84
2023-01-22T09:27:31.087Z,101347.22
2023-01-22T09:32:32.691Z,101348.94
2023-01-22T09:37:34.501Z,101344.53
2023-01-22T09:42:40.457Z,101347.66
2023-01-22T09:47:49.089Z,101355.06
2023-01-22T09:52:53.616Z,101375.34
2023-01-22T09:58:00.179Z,101381.44
2023-01-22T10:03:06.521Z,101389.97
2023-01-22T10:08:13.476Z,101404.97
2023-01-22T10:13:34.072Z,101408.50
2023-01-22T10:18:50.865Z,101418.44
2023-01-22T10:23:56.122Z,101430.34
2023-01-22T10:28:59.063Z,101426.91
2023-01-22T10:34:03.667Z,101418.28
2023-01-22T10:39:14.242Z,101415.59
2023-01-22T10:44:15.696Z,101412.03
2023-01-22T10:49:24.647Z,101412.50
2023-01-22T10:54:32.156Z,101426.09
2023-01-22T10:59:34.365Z,101425.72
2023-01-22T11:04:36.167Z,101418.91
2023-01-22T11:09:57.960Z,101421.78
2023-01-22T11:15:18.087Z,101436.72
2023-01-22T11:20:44.241Z,101452.03
2023-01-22T11:25:54.663Z,101468.13
2023-01-22T11:31:12.823Z,101494.81
2023-01-22T11:36:27.152Z,101521.69
2023-01-22T11:41:59.251Z,101536.22
2023-01-22T11:47:16.826Z,101561.66
2023-01-22T11:52:33.155Z,101566.66
2023-01-22T11:57:43.475Z,101601.75
2023-01-22T12:03:10.686Z,101630.03
2023-01-22T12:08:37.719Z,101614.97
2023-01-22T12:14:04.063Z,101609.16
2023-01-22T12:19:24.258Z,101587.41
2023-01-22T12:24:36.051Z,101597.63
2023-01-22T12:29:43.805Z,101580.84
2023-01-22T12:34:56.685Z,101582.69
2023-01-22T12:40:23.780Z,101573.72
2023-01-22T12:45:31.940Z,101598.19
2023-01-22T12:50:33.501Z,101632.19
2023-01-22T12:55:41.632Z,101644.56
2023-01-22T13:00:44.720Z,101634.59
2023-01-22T13:05:47.073Z,101649.56
2023-01-22T13:11:00.187Z,101638.16
2023-01-22T13:16:16.468Z,101641.28
2023-01-22T13:21:25.055Z,101650.84
2023-01-22T13:26:29.211Z,101640.59
2023-01-22T13:31:31.135Z,101627.63
2023-01-22T13:36:32.638Z,101635.78
2023-01-22T13:41:38.919Z,101640.63
2023-01-22T13:46:40.566Z,101653.28
2023-01-22T13:51:42.669Z,101639.91
2023-01-22T13:56:44.345Z,101607.91
2023-01-22T14:01:46.720Z,101582.56
2023-01-22T14:06:49.547Z,101551.56
2023-01-22T14:11:51.280Z,101537.19
2023-01-22T14:16:53.149Z,101533.09
2023-01-22T14:21:54.659Z,101517.84
2023-01-22T14:26:57.197Z,101514.56
2023-01-22T14:31:58.854Z,101500.06
2023-01-22T14:37:00.424Z,101492.78
2023-01-22T14:42:02.239Z,101485.19
2023-01-22T14:47:04.251Z,101482.88
2023-01-22T14:52:05.859Z,101475.59
2023-01-22T14:57:09.645Z,101467.75
2023-01-22T15:02:11.241Z,101473.38
2023-01-22T15:07:12.897Z,101472.69
2023-01-22T15:12:14.418Z,101491.97
2023-01-22T15:17:15.924Z,101510.25
2023-01-22T15:22:17.664Z,101508.72
2023-01-22T15:27:19.191Z,101508.91
2023-01-22T15:32:20.849Z,101519.31
2023-01-22T15:37:23.703Z,101512.31
2023-01-22T15:42:25.238Z,101492.00
2023-01-22T15:47:29.136Z,101491.13
2023-01-22T15:52:30.675Z,101482.47
2023-01-22T15:57:32.226Z,101484.03
2023-01-22T16:02:33.783Z,101475.34
2023-01-22T16:07:35.344Z,101472.91
2023-01-22T16:12:38.069Z,101470.06
2023-01-22T16:17:39.569Z,101465.94
2023-01-22T16:22:45.485Z,101466.38
2023-01-22T16:27:47.011Z,101472.63
2023-01-22T16:32:49.038Z,101462.81
2023-01-22T16:37:50.761Z,101463.81
2023-01-22T16:43:01.555Z,101459.13
2023-01-22T16:48:03.118Z,101466.22
2023-01-22T16:53:04.641Z,101462.41
2023-01-22T16:58:06.218Z,101471.09
2023-01-22T17:03:07.730Z,101470.66
2023-01-22T17:08:09.347Z,101475.22
2023-01-22T17:13:10.922Z,101474.19
2023-01-22T17:18:13.209Z,101485.00
2023-01-22T17:23:14.747Z,101483.84
2023-01-22T17:28:16.337Z,101492.41
2023-01-22T17:33:20.800Z,101508.88
2023-01-22T17:38:23.676Z,101507.28
2023-01-22T17:43:25.198Z,101507.72
2023-01-22T17:48:27.943Z,101514.25
2023-01-22T17:53:29.462Z,101511.41
2023-01-22T17:58:30.967Z,101525.59
2023-01-22T18:03:33.378Z,101524.34
2023-01-22T18:08:38.447Z,101526.59
2023-01-22T18:13:40.302Z,101531.69
2023-01-22T18:18:42.817Z,101534.38
2023-01-22T18:23:45.464Z,101549.47
2023-01-22T18:28:46.997Z,101554.03
2023-01-22T18:33:49.435Z,101552.16
2023-01-22T18:38:51.320Z,101553.28
2023-01-22T18:43:58.867Z,101554.53
2023-01-22T18:49:05.741Z,101556.25
2023-01-22T18:54:08.151Z,101562.84
2023-01-22T18:59:09.763Z,101563.72
2023-01-22T19:04:17.901Z,101564.00
2023-01-22T19:09:20.939Z,101563.41
2023-01-22T19:14:22.546Z,101562.56
2023-01-22T19:19:24.341Z,101568.78
2023-01-22T19:24:28.388Z,101564.66
2023-01-22T19:29:29.990Z,101571.66
2023-01-22T19:34:33.872Z,101571.06
2023-01-22T19:39:35.841Z,101579.03
2023-01-22T19:44:39.988Z,101587.50
2023-01-22T19:49:41.891Z,101589.91
2023-01-22T19:54:47.369Z,101592.00
2023-01-22T19:59:57.262Z,101592.56
2023-01-22T20:04:58.781Z,101589.41
2023-01-22T20:10:00.301Z,101607.56
2023-01-22T20:15:02.048Z,101616.91
2023-01-22T20:20:07.210Z,101604.56
2023-01-22T20:25:09.141Z,101618.19
2023-01-22T20:30:11.358Z,101608.41
2023-01-22T20:35:15.517Z,101621.16
2023-01-22T20:40:18.516Z,101607.50
2023-01-22T20:45:20.335Z,101613.50
2023-01-22T20:50:22.602Z,101618.63
2023-01-22T20:55:24.613Z,101619.50
2023-01-22T21:00:26.217Z,101610.69
2023-01-22T21:05:28.725Z,101625.84
2023-01-22T21:10:30.286Z,101617.63
2023-01-22T21:15:33.583Z,101619.34
2023-01-22T21:20:37.310Z,101617.25
2023-01-22T21:25:38.922Z,101624.47
2023-01-22T21:30:43.416Z,101620.34
2023-01-22T21:35:51.047Z,101628.13
2023-01-22T21:40:52.695Z,101631.00
2023-01-22T21:46:12.713Z,101633.50
2023-01-22T21:51:14.960Z,101620.44
2023-01-22T21:56:16.555Z,101626.22
2023-01-22T22:01:21.336Z,101625.50
2023-01-22T22:06:22.995Z,101625.88
2023-01-22T22:11:25.182Z,101627.84
2023-01-22T22:16:27.122Z,101625.44
2023-01-22T22:21:28.729Z,101632.19
2023-01-22T22:26:30.496Z,101628.91
2023-01-22T22:31:32.276Z,101631.00
2023-01-22T22:36:34.130Z,101635.53
2023-01-22T22:41:37.059Z,101634.22
2023-01-22T22:46:39.749Z,101635.66
2023-01-22T22:51:42.792Z,101628.91
2023-01-22T22:56:45.976Z,101628.25
2023-01-22T23:01:49.051Z,101631.91
2023-01-22T23:06:51.972Z,101635.75
2023-01-22T23:11:55.992Z,101643.59
2023-01-22T23:16:57.873Z,101645.88
2023-01-22T23:22:00.350Z,101640.47
2023-01-22T23:27:01.903Z,101651.50
2023-01-22T23:32:03.547Z,101642.09
2023-01-22T23:37:05.063Z,101647.56
2023-01-22T23:42:06.650Z,101651.88
2023-01-22T23:47:08.336Z,101641.47
2023-01-22T23:52:09.872Z,101640.44
2023-01-22T23:57:11.530Z,101649.38
